createdAt,value
2018-08-11T00:00:17.517Z,1.60
2018-08-11T00:02:45.782Z,1.55
2018-08-11T00:05:14.099Z,1.70
2018-08-11T00:07:42.337Z,1.62
2018-08-11T00:10:10.638Z,1.40
2018-08-11T00:12:38.889Z,1.65
2018-08-11T00:15:09.596Z,1.60
2018-08-11T00:17:38.091Z,1.30
2018-08-11T00:20:08.454Z,1.60
2018-08-11T00:22:36.674Z,1.62
2018-08-11T00:25:05.330Z,1.30
2018-08-11T00:27:33.530Z,1.40
2018-08-11T00:30:02.538Z,1.40
2018-08-11T00:32:30.750Z,1.17
2018-08-11T00:34:59.793Z,1.65
2018-08-11T00:37:28.037Z,1.47
2018-08-11T00:39:56.296Z,1.30
2018-08-11T00:42:24.617Z,1.50
2018-08-11T00:44:52.889Z,1.20
2018-08-11T00:47:21.177Z,1.60
2018-08-11T00:49:49.434Z,1.72
2018-08-11T00:52:17.683Z,1.72
2018-08-11T00:54:45.918Z,1.65
2018-08-11T00:57:14.156Z,1.70
2018-08-11T00:59:42.357Z,1.55
2018-08-11T01:02:10.591Z,1.50
2018-08-11T01:04:38.785Z,1.45
2018-08-11T01:07:07.022Z,1.72
2018-08-11T01:09:35.234Z,1.72
2018-08-11T01:12:03.457Z,2.00
2018-08-11T01:14:31.677Z,2.10
2018-08-11T01:16:59.941Z,2.30
2018-08-11T01:19:28.268Z,2.15
2018-08-11T01:21:56.557Z,2.30
2018-08-11T01:24:24.817Z,2.37
2018-08-11T01:26:53.077Z,2.20
2018-08-11T01:29:21.346Z,2.40
2018-08-11T01:31:49.605Z,1.82
2018-08-11T01:34:17.845Z,2.47
2018-08-11T01:36:46.094Z,2.40
2018-08-11T01:39:14.382Z,3.20
2018-08-11T01:41:42.584Z,2.60
2018-08-11T01:44:10.844Z,3.00
2018-08-11T01:46:39.045Z,3.10
2018-08-11T01:49:07.345Z,3.17
2018-08-11T01:51:35.629Z,3.77
2018-08-11T01:54:03.888Z,3.72
2018-08-11T01:56:32.101Z,3.60
2018-08-11T01:59:00.347Z,3.87
2018-08-11T02:01:28.608Z,4.25
2018-08-11T02:03:56.957Z,3.80
2018-08-11T02:06:25.234Z,4.40
2018-08-11T02:08:53.565Z,4.33
2018-08-11T02:11:21.975Z,4.37
2018-08-11T02:13:50.287Z,4.70
2018-08-11T02:16:18.533Z,4.03
2018-08-11T02:18:46.786Z,4.65
2018-08-11T02:21:15.070Z,4.90
2018-08-11T02:23:43.315Z,5.60
2018-08-11T02:26:11.557Z,5.22
2018-08-11T02:28:39.818Z,5.95
2018-08-11T02:31:07.800Z,5.53
2018-08-11T02:33:36.126Z,6.15
2018-08-11T02:36:04.348Z,5.80
2018-08-11T02:38:32.663Z,6.37
2018-08-11T02:41:00.970Z,6.25
2018-08-11T02:43:29.239Z,6.00
2018-08-11T02:45:57.581Z,6.53
2018-08-11T02:48:25.836Z,6.40
2018-08-11T02:50:54.083Z,6.65
2018-08-11T02:53:22.380Z,7.00
2018-08-11T02:55:50.729Z,6.30
2018-08-11T02:58:18.945Z,6.65
2018-08-11T03:00:47.199Z,6.28
2018-08-11T03:03:15.423Z,6.78
2018-08-11T03:05:43.741Z,5.85
2018-08-11T03:08:12.054Z,6.20
2018-08-11T03:10:40.278Z,6.25
2018-08-11T03:13:08.470Z,6.30
2018-08-11T03:15:36.715Z,6.60
2018-08-11T03:18:05.053Z,6.50
2018-08-11T03:20:33.336Z,7.20
2018-08-11T03:23:01.582Z,6.25
2018-08-11T03:25:29.807Z,6.45
2018-08-11T03:27:58.083Z,6.30
2018-08-11T03:30:26.328Z,6.58
2018-08-11T03:32:54.509Z,6.22
2018-08-11T03:35:22.924Z,6.65
2018-08-11T03:37:51.156Z,6.35
2018-08-11T03:40:19.358Z,7.20
2018-08-11T03:42:47.582Z,6.90
2018-08-11T03:45:15.892Z,7.22
2018-08-11T03:47:44.103Z,7.78
2018-08-11T03:50:12.309Z,6.65
2018-08-11T03:52:40.521Z,7.37
2018-08-11T03:55:08.729Z,8.08
2018-08-11T03:57:36.982Z,7.53
2018-08-11T04:00:07.920Z,8.20
2018-08-11T04:02:36.141Z,8.13
2018-08-11T04:05:04.361Z,8.33
2018-08-11T04:07:32.688Z,7.72
2018-08-11T04:10:01.445Z,7.28
2018-08-11T04:12:30.227Z,7.87
2018-08-11T04:14:58.513Z,8.00
2018-08-11T04:17:31.015Z,7.28
2018-08-11T04:19:59.293Z,6.87
2018-08-11T04:22:27.567Z,7.47
2018-08-11T04:24:55.803Z,7.12
2018-08-11T04:27:24.075Z,7.45
2018-08-11T04:29:52.342Z,7.50
2018-08-11T04:32:20.569Z,6.90
2018-08-11T04:34:48.859Z,7.00
2018-08-11T04:37:17.155Z,7.03
2018-08-11T04:39:45.395Z,6.60
2018-08-11T04:42:13.671Z,7.30
2018-08-11T04:44:41.901Z,6.60
2018-08-11T04:47:10.114Z,5.87
2018-08-11T04:49:38.329Z,6.17
2018-08-11T04:52:06.565Z,5.85
2018-08-11T04:54:34.762Z,5.87
2018-08-11T04:57:03.017Z,7.35
2018-08-11T04:59:31.294Z,6.60
2018-08-11T05:01:59.545Z,6.70
2018-08-11T05:04:27.773Z,5.97
2018-08-11T05:06:56.024Z,6.55
2018-08-11T05:09:24.266Z,6.62
2018-08-11T05:11:52.601Z,6.03
2018-08-11T05:14:20.821Z,5.92
2018-08-11T05:16:49.101Z,5.72
2018-08-11T05:19:17.317Z,6.10
2018-08-11T05:21:45.591Z,5.42
2018-08-11T05:24:13.825Z,5.45
2018-08-11T05:26:42.042Z,4.70
2018-08-11T05:29:10.289Z,6.08
2018-08-11T05:31:38.536Z,5.50
2018-08-11T05:34:06.841Z,5.87
2018-08-11T05:36:35.104Z,6.10
2018-08-11T05:39:04.086Z,5.67
2018-08-11T05:41:32.342Z,5.20
2018-08-11T05:44:00.641Z,5.00
2018-08-11T05:46:28.896Z,5.47
2018-08-11T05:48:57.166Z,4.85
2018-08-11T05:51:25.418Z,5.05
2018-08-11T05:53:53.696Z,5.17
2018-08-11T05:56:21.961Z,5.10
2018-08-11T05:58:50.262Z,5.25
2018-08-11T06:01:18.525Z,5.10
2018-08-11T06:03:46.773Z,5.22
2018-08-11T06:06:15.021Z,4.67
2018-08-11T06:08:43.370Z,4.50
2018-08-11T06:11:11.662Z,4.70
2018-08-11T06:13:39.902Z,4.80
2018-08-11T06:16:08.118Z,4.53
2018-08-11T06:18:36.397Z,4.35
2018-08-11T06:21:04.693Z,4.42
2018-08-11T06:23:40.475Z,4.83
2018-08-11T06:26:08.714Z,4.17
2018-08-11T06:28:36.977Z,3.98
2018-08-11T06:31:05.249Z,3.65
2018-08-11T06:33:33.554Z,3.98
2018-08-11T06:36:01.754Z,3.77
2018-08-11T06:38:29.989Z,3.70
2018-08-11T06:40:58.304Z,3.30
2018-08-11T06:43:26.453Z,4.08
2018-08-11T06:45:54.753Z,4.78
2018-08-11T06:48:22.998Z,3.63
2018-08-11T06:50:51.254Z,2.90
2018-08-11T06:53:19.482Z,2.97
2018-08-11T06:55:47.754Z,2.50
2018-08-11T06:58:16.045Z,2.67
2018-08-11T07:00:44.313Z,2.53
2018-08-11T07:03:12.523Z,2.50
2018-08-11T07:05:40.849Z,2.20
2018-08-11T07:08:09.098Z,1.40
2018-08-11T07:10:37.433Z,1.23
2018-08-11T07:13:05.650Z,1.73
2018-08-11T07:15:34.109Z,1.60
2018-08-11T07:18:11.592Z,1.53
2018-08-11T07:20:39.812Z,1.33
2018-08-11T07:23:08.006Z,1.60
2018-08-11T07:25:36.260Z,1.50
2018-08-11T07:28:04.573Z,1.47
2018-08-11T07:30:32.788Z,1.40
2018-08-11T07:33:00.993Z,1.27
2018-08-11T07:35:29.286Z,1.57
2018-08-11T07:37:58.812Z,1.40
2018-08-11T07:40:27.209Z,1.10
2018-08-11T07:42:55.488Z,1.30
2018-08-11T07:45:23.793Z,1.40
2018-08-11T07:47:52.052Z,2.07
2018-08-11T07:50:20.322Z,1.70
2018-08-11T07:52:48.699Z,1.50
2018-08-11T07:55:17.074Z,1.67
2018-08-11T07:57:45.406Z,2.10
2018-08-11T08:00:13.684Z,1.83
2018-08-11T08:02:41.965Z,1.50
2018-08-11T08:05:10.177Z,1.83
2018-08-11T08:07:38.433Z,1.87
2018-08-11T08:10:07.273Z,1.63
2018-08-11T08:12:35.573Z,1.57
2018-08-11T08:15:04.477Z,1.60
2018-08-11T08:17:32.741Z,1.37
2018-08-11T08:20:00.998Z,1.30
2018-08-11T08:22:29.361Z,1.90
2018-08-11T08:24:57.585Z,1.43
2018-08-11T08:27:25.884Z,1.10
2018-08-11T08:29:54.165Z,1.60
2018-08-11T08:32:22.394Z,1.20
2018-08-11T08:34:50.698Z,1.10
2018-08-11T08:37:18.997Z,1.23
2018-08-11T08:39:47.290Z,1.37
2018-08-11T08:42:15.539Z,0.93
2018-08-11T08:44:43.845Z,1.50
2018-08-11T08:47:12.212Z,1.33
2018-08-11T08:49:40.499Z,1.20
2018-08-11T08:52:08.817Z,1.10
2018-08-11T08:54:37.109Z,1.00
2018-08-11T08:57:05.465Z,0.73
2018-08-11T08:59:33.692Z,0.97
2018-08-11T09:02:01.929Z,1.13
2018-08-11T09:04:30.201Z,1.00
2018-08-11T09:06:58.401Z,1.03
2018-08-11T09:09:26.649Z,1.03
2018-08-11T09:11:54.956Z,0.87
2018-08-11T09:14:23.160Z,0.70
2018-08-11T09:16:51.682Z,0.83
2018-08-11T09:19:19.994Z,0.80
2018-08-11T09:21:48.866Z,0.90
2018-08-11T09:24:17.641Z,0.73
2018-08-11T09:26:45.842Z,1.07
2018-08-11T09:29:14.136Z,1.10
2018-08-11T09:31:42.309Z,0.80
2018-08-11T09:34:10.578Z,0.73
2018-08-11T09:36:38.816Z,0.80
2018-08-11T09:39:08.214Z,0.73
2018-08-11T09:41:36.433Z,0.70
2018-08-11T09:44:04.664Z,0.90
2018-08-11T09:46:32.912Z,1.27
2018-08-11T09:49:01.173Z,1.10
2018-08-11T09:51:29.397Z,0.90
2018-08-11T09:53:57.694Z,1.00
2018-08-11T09:56:26.197Z,0.90
2018-08-11T09:58:54.397Z,0.90
2018-08-11T10:01:27.999Z,1.00
2018-08-11T10:03:56.245Z,0.90
2018-08-11T10:06:24.443Z,0.80
2018-08-11T10:08:52.770Z,0.77
2018-08-11T10:11:20.976Z,1.10
2018-08-11T10:13:49.831Z,0.80
2018-08-11T10:16:18.412Z,0.93
2018-08-11T10:18:46.664Z,0.80
2018-08-11T10:21:14.974Z,1.23
2018-08-11T10:23:43.188Z,0.90
2018-08-11T10:26:11.459Z,1.00
2018-08-11T10:28:39.766Z,0.90
2018-08-11T10:31:07.977Z,1.13
2018-08-11T10:33:36.315Z,0.83
2018-08-11T10:36:04.600Z,0.70
2018-08-11T10:38:43.267Z,0.80
2018-08-11T10:41:24.230Z,1.00
2018-08-11T10:43:52.585Z,1.20
2018-08-11T10:46:20.793Z,0.90
2018-08-11T10:48:48.807Z,1.13
2018-08-11T10:51:17.117Z,1.00
2018-08-11T10:53:45.325Z,0.70
2018-08-11T10:56:13.525Z,0.83
2018-08-11T10:58:41.738Z,0.70
2018-08-11T11:01:10.096Z,0.90
2018-08-11T11:03:38.299Z,0.80
2018-08-11T11:06:06.213Z,0.90
2018-08-11T11:08:34.458Z,0.80
2018-08-11T11:11:02.686Z,0.70
2018-08-11T11:13:30.669Z,0.90
2018-08-11T11:15:58.958Z,0.77
2018-08-11T11:18:27.199Z,1.10
2018-08-11T11:20:55.496Z,0.90
2018-08-11T11:23:23.733Z,0.90
2018-08-11T11:25:51.979Z,0.83
2018-08-11T11:28:20.217Z,0.80
2018-08-11T11:30:48.605Z,1.03
2018-08-11T11:33:16.888Z,0.83
2018-08-11T11:35:45.158Z,0.80
2018-08-11T11:38:13.660Z,0.90
2018-08-11T11:40:41.869Z,0.93
2018-08-11T11:43:10.165Z,1.07
2018-08-11T11:45:38.540Z,0.80
2018-08-11T11:48:06.796Z,1.00
2018-08-11T11:50:35.152Z,1.00
2018-08-11T11:53:03.414Z,0.90
2018-08-11T11:55:31.619Z,0.87
2018-08-11T11:57:59.902Z,0.80
2018-08-11T12:00:28.150Z,1.10
2018-08-11T12:02:56.587Z,0.77
2018-08-11T12:05:24.829Z,0.80
2018-08-11T12:07:53.068Z,1.10
2018-08-11T12:10:21.344Z,1.07
2018-08-11T12:12:49.610Z,1.17
2018-08-11T12:15:18.235Z,0.90
2018-08-11T12:17:46.529Z,0.90
2018-08-11T12:20:14.735Z,0.80
2018-08-11T12:22:42.961Z,1.20
2018-08-11T12:25:11.293Z,0.90
2018-08-11T12:27:39.582Z,0.83
2018-08-11T12:30:09.297Z,1.50
2018-08-11T12:32:37.549Z,0.80
2018-08-11T12:35:05.852Z,0.70
2018-08-11T12:37:34.049Z,0.70
2018-08-11T12:40:02.350Z,0.90
2018-08-11T12:42:30.768Z,1.10
2018-08-11T12:44:59.021Z,0.90
2018-08-11T12:47:27.276Z,0.90
2018-08-11T12:49:55.558Z,1.00
2018-08-11T12:52:23.821Z,0.80
2018-08-11T12:54:52.091Z,0.90
2018-08-11T12:57:20.751Z,0.80
2018-08-11T12:59:48.949Z,0.80
2018-08-11T13:02:17.166Z,0.60
2018-08-11T13:04:45.374Z,1.17
2018-08-11T13:07:13.633Z,1.10
2018-08-11T13:09:42.349Z,1.00
2018-08-11T13:12:10.568Z,0.83
2018-08-11T13:14:38.797Z,0.90
2018-08-11T13:17:07.125Z,1.10
2018-08-11T13:19:35.401Z,0.70
2018-08-11T13:22:03.685Z,0.97
2018-08-11T13:24:32.066Z,0.90
2018-08-11T13:27:00.277Z,1.30
2018-08-11T13:29:28.593Z,1.00
2018-08-11T13:31:56.857Z,1.20
2018-08-11T13:34:25.413Z,0.80
2018-08-11T13:36:53.649Z,0.90
2018-08-11T13:39:21.910Z,0.80
2018-08-11T13:41:50.629Z,0.70
2018-08-11T13:44:19.821Z,0.80
2018-08-11T13:46:48.095Z,0.90
2018-08-11T13:49:16.380Z,1.20
2018-08-11T13:51:44.662Z,1.10
2018-08-11T13:54:12.933Z,0.70
2018-08-11T13:56:41.134Z,1.00
2018-08-11T13:59:09.396Z,1.10
2018-08-11T14:01:37.681Z,0.80
2018-08-11T14:04:05.929Z,0.80
2018-08-11T14:06:34.229Z,1.00
2018-08-11T14:09:02.503Z,1.20
2018-08-11T14:11:30.724Z,0.70
2018-08-11T14:13:58.921Z,0.90
2018-08-11T14:16:27.293Z,0.90
2018-08-11T14:18:55.500Z,1.40
2018-08-11T14:21:23.709Z,0.90
2018-08-11T14:23:51.946Z,0.87
2018-08-11T14:26:20.310Z,0.87
2018-08-11T14:28:48.642Z,1.10
2018-08-11T14:31:16.886Z,1.20
2018-08-11T14:33:45.130Z,1.20
2018-08-11T14:36:13.419Z,0.80
2018-08-11T14:38:42.315Z,1.00
2018-08-11T14:41:10.501Z,0.90
2018-08-11T14:43:38.819Z,1.40
2018-08-11T14:46:07.486Z,1.03
2018-08-11T14:48:35.713Z,1.10
2018-08-11T14:51:03.957Z,0.97
2018-08-11T14:53:32.357Z,0.97
2018-08-11T14:56:00.606Z,1.27
2018-08-11T14:58:28.933Z,1.17
2018-08-11T15:00:57.212Z,0.80
2018-08-11T15:03:25.625Z,1.10
2018-08-11T15:05:53.837Z,0.87
2018-08-11T15:08:22.189Z,1.30
2018-08-11T15:10:50.465Z,1.70
2018-08-11T15:13:18.813Z,1.00
2018-08-11T15:15:47.067Z,1.23
2018-08-11T15:18:15.355Z,0.90
2018-08-11T15:20:43.632Z,1.20
2018-08-11T15:23:11.867Z,0.90
2018-08-11T15:25:40.101Z,1.33
2018-08-11T15:28:08.404Z,0.80
2018-08-11T15:30:36.690Z,0.80
2018-08-11T15:33:04.976Z,1.00
2018-08-11T15:35:33.270Z,0.90
2018-08-11T15:38:01.658Z,0.90
2018-08-11T15:40:29.931Z,1.10
2018-08-11T15:42:58.264Z,1.00
2018-08-11T15:45:26.645Z,0.90
2018-08-11T15:47:54.874Z,1.10
2018-08-11T15:50:23.170Z,0.83
2018-08-11T15:52:51.402Z,1.20
2018-08-11T15:55:19.629Z,1.30
2018-08-11T15:57:47.898Z,0.90
2018-08-11T16:00:16.119Z,1.30
2018-08-11T16:02:44.342Z,1.20
2018-08-11T16:05:12.558Z,0.90
2018-08-11T16:07:40.797Z,1.20
2018-08-11T16:10:08.995Z,1.20
2018-08-11T16:12:37.228Z,1.10
2018-08-11T16:15:05.602Z,1.13
2018-08-11T16:17:33.849Z,1.27
2018-08-11T16:20:02.078Z,1.30
2018-08-11T16:22:30.348Z,1.00
2018-08-11T16:24:58.661Z,1.07
2018-08-11T16:27:26.900Z,1.23
2018-08-11T16:29:55.226Z,1.30
2018-08-11T16:32:23.427Z,1.30
2018-08-11T16:34:51.701Z,1.40
2018-08-11T16:37:19.969Z,1.43
2018-08-11T16:39:48.245Z,1.40
2018-08-11T16:42:16.575Z,1.50
2018-08-11T16:44:44.913Z,2.10
2018-08-11T16:47:13.166Z,1.50
2018-08-11T16:49:41.421Z,1.37
2018-08-11T16:52:10.217Z,1.40
2018-08-11T16:54:38.469Z,1.57
2018-08-11T16:57:06.665Z,2.10
2018-08-11T16:59:34.978Z,1.70
2018-08-11T17:02:03.141Z,1.77
2018-08-11T17:04:31.362Z,1.10
2018-08-11T17:06:59.580Z,1.63
2018-08-11T17:09:27.780Z,1.43
2018-08-11T17:11:56.065Z,1.50
2018-08-11T17:14:24.375Z,1.70
2018-08-11T17:16:52.685Z,1.53
2018-08-11T17:19:21.010Z,1.60
2018-08-11T17:21:49.314Z,1.33
2018-08-11T17:24:17.625Z,1.63
2018-08-11T17:26:45.914Z,4.10
2018-08-11T17:29:14.141Z,3.50
2018-08-11T17:31:42.365Z,3.00
2018-08-11T17:34:10.597Z,1.60
2018-08-11T17:36:38.885Z,3.90
2018-08-11T17:39:08.173Z,3.47
2018-08-11T17:41:36.433Z,3.00
2018-08-11T17:44:04.700Z,3.00
2018-08-11T17:46:32.898Z,1.27
2018-08-11T17:49:01.273Z,1.60
2018-08-11T17:51:29.499Z,1.30
2018-08-11T17:53:57.773Z,1.80
2018-08-11T17:56:26.032Z,3.40
2018-08-11T17:58:54.292Z,1.43
2018-08-11T18:01:22.593Z,1.60
2018-08-11T18:03:50.821Z,1.47
2018-08-11T18:06:19.098Z,1.40
2018-08-11T18:08:47.482Z,1.40
2018-08-11T18:11:15.769Z,1.30
2018-08-11T18:13:44.129Z,1.27
2018-08-11T18:16:12.344Z,1.30
2018-08-11T18:18:40.354Z,1.37
2018-08-11T18:21:08.723Z,1.47
2018-08-11T18:23:37.085Z,1.20
2018-08-11T18:26:05.361Z,1.30
2018-08-11T18:28:33.617Z,1.33
2018-08-11T18:31:01.622Z,1.40
2018-08-11T18:33:29.961Z,1.40
2018-08-11T18:35:58.217Z,1.30
2018-08-11T18:38:26.557Z,1.30
2018-08-11T18:40:54.842Z,1.20
2018-08-11T18:43:23.123Z,1.80
2018-08-11T18:45:51.919Z,1.90
2018-08-11T18:48:20.209Z,1.87
2018-08-11T18:50:48.467Z,1.87
2018-08-11T18:53:16.729Z,1.57
2018-08-11T18:55:44.958Z,2.30
2018-08-11T18:58:13.158Z,2.10
2018-08-11T19:00:41.434Z,1.63
2018-08-11T19:03:10.086Z,1.90
2018-08-11T19:05:38.317Z,1.90
2018-08-11T19:08:06.621Z,1.70
2018-08-11T19:10:34.837Z,2.30
2018-08-11T19:13:03.159Z,1.93
2018-08-11T19:15:31.669Z,4.73
2018-08-11T19:17:59.953Z,3.80
2018-08-11T19:20:28.314Z,2.90
2018-08-11T19:22:56.566Z,2.70
2018-08-11T19:25:24.839Z,2.30
2018-08-11T19:27:53.149Z,2.63
2018-08-11T19:30:21.531Z,2.93
2018-08-11T19:32:50.010Z,2.40
2018-08-11T19:35:18.342Z,2.43
2018-08-11T19:37:46.537Z,2.57
2018-08-11T19:40:14.794Z,2.30
2018-08-11T19:42:43.113Z,2.57
2018-08-11T19:45:12.239Z,2.30
2018-08-11T19:47:40.862Z,3.07
2018-08-11T19:50:10.662Z,2.70
2018-08-11T19:52:39.117Z,3.30
2018-08-11T19:55:07.920Z,3.20
2018-08-11T19:57:36.273Z,3.37
2018-08-11T20:00:10.209Z,4.10
2018-08-11T20:02:38.870Z,3.50
2018-08-11T20:05:07.371Z,3.77
2018-08-11T20:07:35.586Z,4.10
2018-08-11T20:10:04.404Z,4.20
2018-08-11T20:12:32.790Z,4.80
2018-08-11T20:15:01.010Z,5.67
2018-08-11T20:17:29.265Z,5.33
2018-08-11T20:19:57.601Z,5.57
2018-08-11T20:22:25.796Z,5.50
2018-08-11T20:24:54.193Z,7.07
2018-08-11T20:27:22.481Z,6.77
2018-08-11T20:29:50.732Z,7.00
2018-08-11T20:32:19.002Z,6.50
2018-08-11T20:34:47.299Z,6.97
2018-08-11T20:37:15.937Z,6.40
2018-08-11T20:39:44.193Z,6.17
2018-08-11T20:42:12.461Z,5.30
2018-08-11T20:44:40.874Z,5.60
2018-08-11T20:47:09.245Z,4.67
2018-08-11T20:49:37.474Z,5.30
2018-08-11T20:52:05.861Z,6.50
2018-08-11T20:54:34.573Z,6.80
2018-08-11T20:57:03.074Z,5.83
2018-08-11T20:59:31.318Z,5.50
2018-08-11T21:01:59.918Z,5.20
2018-08-11T21:04:28.809Z,5.90
2018-08-11T21:06:57.429Z,8.00
2018-08-11T21:09:26.051Z,6.57
2018-08-11T21:11:54.515Z,4.47
2018-08-11T21:14:24.163Z,4.90
2018-08-11T21:16:53.250Z,5.20
2018-08-11T21:19:21.719Z,4.83
2018-08-11T21:21:50.339Z,4.60
2018-08-11T21:24:18.766Z,5.50
2018-08-11T21:26:47.324Z,5.27
2018-08-11T21:29:15.806Z,5.47
2018-08-11T21:31:44.403Z,5.67
2018-08-11T21:34:13.162Z,5.33
2018-08-11T21:36:41.567Z,5.50
2018-08-11T21:39:13.388Z,4.90
2018-08-11T21:41:41.895Z,5.03
2018-08-11T21:44:10.430Z,5.53
2018-08-11T21:46:39.029Z,5.70
2018-08-11T21:49:08.677Z,5.70
2018-08-11T21:51:36.917Z,5.70
2018-08-11T21:54:05.148Z,6.10
2018-08-11T21:56:33.463Z,5.97
2018-08-11T21:59:01.725Z,5.90
2018-08-11T22:01:30.527Z,6.20
2018-08-11T22:03:59.873Z,6.07
2018-08-11T22:06:29.508Z,7.00
2018-08-11T22:08:58.623Z,7.03
2018-08-11T22:11:28.456Z,6.90
2018-08-11T22:13:56.758Z,6.73
2018-08-11T22:17:02.714Z,7.20
2018-08-11T22:19:30.998Z,7.53
2018-08-11T22:21:59.218Z,7.30
2018-08-11T22:24:27.465Z,7.17
2018-08-11T22:26:55.714Z,7.00
2018-08-11T22:29:24.042Z,7.13
2018-08-11T22:31:55.672Z,6.10
2018-08-11T22:34:25.317Z,6.70
2018-08-11T22:36:55.038Z,7.67
2018-08-11T22:39:24.498Z,6.80
2018-08-11T22:41:54.467Z,6.27
2018-08-11T22:44:24.886Z,6.53
2018-08-11T22:46:55.411Z,6.20
2018-08-11T22:49:24.669Z,6.97
2018-08-11T22:51:54.328Z,6.73
2018-08-11T22:56:46.644Z,6.80
2018-08-11T22:59:14.897Z,6.20
2018-08-11T23:01:43.164Z,6.80
2018-08-11T23:04:11.525Z,6.70
2018-08-11T23:06:39.781Z,7.13
2018-08-11T23:09:08.101Z,7.10
2018-08-11T23:11:36.363Z,7.03
2018-08-11T23:14:04.593Z,6.93
2018-08-11T23:16:32.873Z,7.03
2018-08-11T23:19:01.081Z,6.83
2018-08-11T23:21:29.281Z,7.10
2018-08-11T23:23:57.501Z,6.97
2018-08-11T23:26:27.389Z,8.20
2018-08-11T23:28:55.612Z,7.10
2018-08-11T23:31:23.833Z,8.00
2018-08-11T23:33:52.121Z,7.43
2018-08-11T23:36:20.341Z,7.57
2018-08-11T23:38:48.641Z,7.37
2018-08-11T23:41:16.843Z,7.27
2018-08-11T23:43:45.142Z,6.67
2018-08-11T23:46:13.394Z,7.17
2018-08-11T23:48:41.614Z,7.30
2018-08-11T23:51:09.901Z,7.80
2018-08-11T23:53:38.117Z,7.43
2018-08-11T23:56:06.565Z,7.30
2018-08-11T23:58:34.769Z,7.17
